createdAt,value
2019-06-20T00:03:39.970Z,8.83
2019-06-20T00:08:47.754Z,8.00
2019-06-20T00:13:54.616Z,8.00
2019-06-20T00:19:00.686Z,9.33
2019-06-20T00:24:08.442Z,11.00
2019-06-20T00:29:13.544Z,10.00
2019-06-20T00:34:17.656Z,10.00
2019-06-20T00:39:21.856Z,7.67
2019-06-20T00:44:26.092Z,8.00
2019-06-20T00:49:30.427Z,8.00
2019-06-20T00:54:35.635Z,10.00
2019-06-20T00:59:39.854Z,9.00
2019-06-20T01:04:48.408Z,9.43
2019-06-20T01:09:51.711Z,7.00
2019-06-20T01:14:55.936Z,7.60
2019-06-20T01:20:00.207Z,10.33
2019-06-20T01:25:06.027Z,9.00
2019-06-20T01:30:10.199Z,8.00
2019-06-20T01:35:15.124Z,9.00
2019-06-20T01:40:19.284Z,7.00
2019-06-20T01:45:23.787Z,9.33
2019-06-20T01:50:27.915Z,9.00
2019-06-20T01:55:33.893Z,10.86
2019-06-20T02:00:45.718Z,7.25
2019-06-20T02:05:49.307Z,11.00
2019-06-20T02:10:53.760Z,7.83
2019-06-20T02:15:58.154Z,9.00
2019-06-20T02:21:02.910Z,10.86
2019-06-20T02:26:07.697Z,10.00
2019-06-20T02:31:14.227Z,13.71
2019-06-20T02:36:20.805Z,12.29
2019-06-20T02:41:25.748Z,9.67
2019-06-20T02:46:29.639Z,9.60
2019-06-20T02:51:34.688Z,10.00
2019-06-20T02:56:38.643Z,9.50
2019-06-20T03:01:45.262Z,14.00
2019-06-20T03:06:50.160Z,12.43
2019-06-20T03:11:54.978Z,14.29
2019-06-20T03:16:59.828Z,12.29
2019-06-20T03:22:02.967Z,14.00
2019-06-20T03:27:12.886Z,19.67
2019-06-20T03:32:16.868Z,12.50
2019-06-20T03:37:20.883Z,10.33
2019-06-20T03:42:25.715Z,15.71
2019-06-20T03:47:28.979Z,12.00
2019-06-20T03:52:38.061Z,17.25
2019-06-20T03:57:44.622Z,11.00
2019-06-20T04:02:47.756Z,12.00
2019-06-20T04:07:51.667Z,9.17
2019-06-20T04:12:57.534Z,9.33
2019-06-20T04:18:02.454Z,7.33
2019-06-20T04:23:08.995Z,8.17
2019-06-20T04:28:13.042Z,10.33
2019-06-20T04:33:18.888Z,10.57
2019-06-20T04:38:23.669Z,8.17
2019-06-20T04:43:27.931Z,9.00
2019-06-20T04:48:32.300Z,8.17
2019-06-20T04:53:35.865Z,8.33
2019-06-20T04:58:43.423Z,8.89
2019-06-20T05:03:46.939Z,10.00
2019-06-20T05:08:52.001Z,11.00
2019-06-20T05:13:57.017Z,6.00
2019-06-20T05:19:01.936Z,11.17
2019-06-20T05:24:06.933Z,7.00
2019-06-20T05:29:12.812Z,9.83
2019-06-20T05:34:20.379Z,9.33
2019-06-20T05:39:24.651Z,10.00
2019-06-20T05:44:28.888Z,6.67
2019-06-20T05:49:37.120Z,9.67
2019-06-20T05:54:44.999Z,8.67
2019-06-20T05:59:49.930Z,6.50
2019-06-20T06:04:54.175Z,7.00
2019-06-20T06:09:58.480Z,8.50
2019-06-20T06:15:06.285Z,8.33
2019-06-20T06:20:10.970Z,7.83
2019-06-20T06:25:15.316Z,11.00
2019-06-20T06:30:19.474Z,11.40
2019-06-20T06:35:24.444Z,19.29
2019-06-20T06:40:29.560Z,6.17
2019-06-20T06:45:37.938Z,7.00
2019-06-20T06:50:41.579Z,6.67
2019-06-20T06:55:45.171Z,9.00
2019-06-20T07:00:51.226Z,5.00
2019-06-20T07:05:54.721Z,6.33
2019-06-20T07:10:58.180Z,5.67
2019-06-20T07:16:05.007Z,7.00
2019-06-20T07:21:12.668Z,4.17
2019-06-20T07:26:19.720Z,4.40
2019-06-20T07:31:23.415Z,3.33
2019-06-20T07:36:31.976Z,8.17
2019-06-20T07:41:35.897Z,11.50
2019-06-20T07:46:39.620Z,8.33
2019-06-20T07:51:44.277Z,5.67
2019-06-20T07:56:49.630Z,10.71
2019-06-20T08:01:56.529Z,6.00
2019-06-20T08:07:03.479Z,5.00
2019-06-20T08:12:06.945Z,5.00
2019-06-20T08:17:11.463Z,4.00
2019-06-20T08:22:15.256Z,3.00
2019-06-20T08:27:19.609Z,4.00
2019-06-20T08:32:27.471Z,4.10
2019-06-20T08:37:31.067Z,9.17
2019-06-20T08:42:37.474Z,6.00
2019-06-20T08:47:44.790Z,4.78
2019-06-20T08:52:49.997Z,3.00
2019-06-20T08:57:55.715Z,4.00
2019-06-20T09:03:00.538Z,3.00
2019-06-20T09:08:05.523Z,5.17
2019-06-20T09:13:11.697Z,13.00
2019-06-20T09:18:15.418Z,3.67
2019-06-20T09:23:21.771Z,5.00
2019-06-20T09:28:25.345Z,5.40
2019-06-20T09:33:33.011Z,3.80
2019-06-20T09:38:36.768Z,5.00
2019-06-20T09:43:40.266Z,5.67
2019-06-20T09:48:43.942Z,13.00
2019-06-20T09:53:53.857Z,10.00
2019-06-20T09:59:02.079Z,4.60
2019-06-20T10:04:05.797Z,7.33
2019-06-20T10:09:13.645Z,4.00
2019-06-20T10:14:20.565Z,18.00
2019-06-20T10:19:24.795Z,7.00
2019-06-20T10:24:28.329Z,6.00
2019-06-20T10:29:33.421Z,5.20
2019-06-20T10:34:40.302Z,6.00
2019-06-20T10:39:47.759Z,4.40
2019-06-20T10:44:52.861Z,3.33
2019-06-20T10:49:56.564Z,5.00
2019-06-20T10:55:00.405Z,5.00
2019-06-20T11:00:05.786Z,7.67
2019-06-20T11:05:10.939Z,4.00
2019-06-20T11:10:15.318Z,4.33
2019-06-20T11:15:20.384Z,6.17
2019-06-20T11:20:24.658Z,5.67
2019-06-20T11:25:32.606Z,3.80
2019-06-20T11:30:53.317Z,7.00
2019-06-20T11:35:47.891Z,8.17
2019-06-20T11:40:52.253Z,5.00
2019-06-20T11:45:55.471Z,7.00
2019-06-20T11:51:03.357Z,12.86
2019-06-20T11:56:09.023Z,8.83
2019-06-20T12:01:13.135Z,9.17
2019-06-20T12:06:17.344Z,17.40
2019-06-20T12:11:25.525Z,5.00
2019-06-20T12:16:29.395Z,7.00
2019-06-20T12:21:37.979Z,6.00
2019-06-20T12:26:44.390Z,9.33
2019-06-20T12:31:49.250Z,13.29
2019-06-20T12:36:52.952Z,7.40
2019-06-20T12:41:56.658Z,7.00
2019-06-20T12:47:01.246Z,5.83
2019-06-20T12:52:05.182Z,8.00
2019-06-20T12:57:12.610Z,4.20
2019-06-20T13:02:18.274Z,8.40
2019-06-20T13:07:21.889Z,9.00
2019-06-20T13:12:25.487Z,8.50
2019-06-20T13:17:29.351Z,6.00
2019-06-20T13:22:39.163Z,6.00
2019-06-20T13:27:47.825Z,3.40
2019-06-20T13:32:51.792Z,7.20
2019-06-20T13:37:55.520Z,5.33
2019-06-20T13:42:58.673Z,9.40
2019-06-20T13:48:02.386Z,7.00
2019-06-20T13:53:10.448Z,5.00
2019-06-20T13:58:15.222Z,11.00
2019-06-20T14:03:19.012Z,9.00
2019-06-20T14:08:23.870Z,7.50
2019-06-20T14:13:27.866Z,8.00
2019-06-20T14:18:32.606Z,8.67
2019-06-20T14:23:37.311Z,11.67
2019-06-20T14:28:48.228Z,12.71
2019-06-20T14:33:53.392Z,15.14
2019-06-20T14:38:58.813Z,13.00
2019-06-20T14:44:03.349Z,8.83
2019-06-20T14:49:07.286Z,11.00
2019-06-20T14:54:12.007Z,10.33
2019-06-20T14:59:16.551Z,10.67
2019-06-20T15:04:20.896Z,10.33
2019-06-20T15:09:25.431Z,13.00
2019-06-20T15:14:30.043Z,16.00
2019-06-20T15:19:33.889Z,14.00
2019-06-20T15:24:36.836Z,9.00
2019-06-20T15:29:40.658Z,21.25
2019-06-20T15:34:44.650Z,30.00
2019-06-20T15:39:51.683Z,19.33
2019-06-20T15:44:58.111Z,18.86
2019-06-20T15:50:07.487Z,43.50
2019-06-20T15:55:14.767Z,20.00
2019-06-20T16:00:20.514Z,21.57
2019-06-20T16:05:24.083Z,24.00
2019-06-20T16:10:29.743Z,19.29
2019-06-20T16:15:34.061Z,18.67
2019-06-20T16:20:40.341Z,12.71
2019-06-20T16:25:44.885Z,19.43
2019-06-20T16:30:51.109Z,13.71
2019-06-20T16:35:54.967Z,12.00
2019-06-20T16:41:02.252Z,15.00
2019-06-20T16:46:06.966Z,13.29
2019-06-20T16:51:13.860Z,14.00
2019-06-20T16:56:18.188Z,20.00
2019-06-20T17:01:25.068Z,15.25
2019-06-20T17:06:31.919Z,12.71
2019-06-20T17:11:36.313Z,10.33
2019-06-20T17:16:41.668Z,12.00
2019-06-20T17:21:47.093Z,12.00
2019-06-20T17:26:51.556Z,14.00
2019-06-20T17:31:57.465Z,14.57
2019-06-20T17:37:04.885Z,18.29
2019-06-20T17:42:09.510Z,15.71
2019-06-20T17:47:14.046Z,14.71
2019-06-20T17:52:20.250Z,16.62
2019-06-20T17:57:24.029Z,24.17
2019-06-20T18:02:30.012Z,16.29
2019-06-20T18:07:33.819Z,9.67
2019-06-20T18:12:37.695Z,11.00
2019-06-20T18:17:41.293Z,16.00
2019-06-20T18:22:45.202Z,10.00
2019-06-20T18:27:53.127Z,14.57
2019-06-20T18:32:57.920Z,11.67
2019-06-20T18:38:00.979Z,25.50
2019-06-20T18:43:08.251Z,16.50
2019-06-20T18:48:13.005Z,18.86
2019-06-20T18:53:19.194Z,13.00
2019-06-20T18:58:24.675Z,18.00
2019-06-20T19:03:28.527Z,11.60
2019-06-20T19:08:34.091Z,21.86
2019-06-20T19:13:38.740Z,15.86
2019-06-20T19:18:43.496Z,16.86
2019-06-20T19:23:49.949Z,25.25
2019-06-20T19:28:55.327Z,15.00
2019-06-20T19:34:00.087Z,15.86
2019-06-20T19:39:05.621Z,17.67
2019-06-20T19:44:12.443Z,15.71
2019-06-20T19:49:17.060Z,16.71
2019-06-20T19:54:21.546Z,17.29
2019-06-20T19:59:28.469Z,12.00
2019-06-20T20:04:35.555Z,13.71
2019-06-20T20:09:40.053Z,18.00
2019-06-20T20:14:49.500Z,18.25
2019-06-20T20:19:53.939Z,14.29
2019-06-20T20:25:00.052Z,14.50
2019-06-20T20:30:07.334Z,14.00
2019-06-20T20:35:14.058Z,14.29
2019-06-20T20:40:21.604Z,16.71
2019-06-20T20:45:25.383Z,25.75
2019-06-20T20:50:29.055Z,38.00
2019-06-20T20:55:32.999Z,34.00
2019-06-20T21:00:40.142Z,19.29
2019-06-20T21:05:51.417Z,19.57
2019-06-20T21:10:51.383Z,16.00
2019-06-20T21:15:56.890Z,16.71
2019-06-20T21:21:02.328Z,16.43
2019-06-20T21:26:09.083Z,15.29
2019-06-20T21:31:15.961Z,14.00
2019-06-20T21:36:19.493Z,17.00
2019-06-20T21:41:23.027Z,15.00
2019-06-20T21:46:30.018Z,15.50
2019-06-20T21:51:36.862Z,15.13
2019-06-20T21:56:43.903Z,11.00
2019-06-20T22:01:50.794Z,13.57
2019-06-20T22:06:56.983Z,14.00
2019-06-20T22:12:03.738Z,12.29
2019-06-20T22:17:11.382Z,9.00
2019-06-20T22:22:16.418Z,9.17
2019-06-20T22:27:23.096Z,13.29
2019-06-20T22:32:27.368Z,13.00
2019-06-20T22:37:35.705Z,11.57
2019-06-20T22:42:43.471Z,15.00
2019-06-20T22:47:52.047Z,13.00
2019-06-20T22:52:56.361Z,12.67
2019-06-20T22:58:02.591Z,13.00
2019-06-20T23:03:05.599Z,15.67
2019-06-20T23:08:09.655Z,12.00
2019-06-20T23:13:18.112Z,14.14
2019-06-20T23:18:24.763Z,12.86
2019-06-20T23:23:31.433Z,14.00
2019-06-20T23:28:36.379Z,12.67
2019-06-20T23:33:41.230Z,14.43
2019-06-20T23:38:47.032Z,15.00
2019-06-20T23:43:53.808Z,16.00
2019-06-20T23:48:58.631Z,15.00
2019-06-20T23:54:04.563Z,14.71
2019-06-20T23:59:09.341Z,13.86
